Time;durP1;ratioP1;P1;durP2;ratioP2;P2;SDS_P1;SDS_P2;PMS_P1;PMS_P2;Temp;Humidity;BMP_temperature;BMP_pressure;BME280_temperature;BME280_humidity;BME280_pressure;Samples;Min_cycle;Max_cycle;Signal;HPM_P1;HPM_P2
2022/06/29 00:00:17;;;;;;;26.80;18.77;;;;;;;21.50;100.00;100238.98;1708820;82;21121;-71
2022/06/29 00:02:44;;;;;;;20.65;18.37;;;;;;;21.50;100.00;100242.16;1705158;84;22674;-70
2022/06/29 00:05:13;;;;;;;23.87;18.98;;;;;;;21.51;100.00;100246.06;1704925;84;21050;-71
2022/06/29 00:07:41;;;;;;;19.23;17.12;;;;;;;21.49;100.00;100238.62;1704850;84;21041;-71
2022/06/29 00:10:09;;;;;;;22.07;18.02;;;;;;;21.52;100.00;100237.03;1705018;84;21519;-72
2022/06/29 00:12:36;;;;;;;24.25;19.40;;;;;;;21.51;100.00;100240.70;1722499;82;21570;-70
2022/06/29 00:15:04;;;;;;;45.80;18.45;;;;;;;21.53;100.00;100250.81;1734198;82;21383;-71
2022/06/29 00:17:31;;;;;;;22.45;19.85;;;;;;;21.52;100.00;100250.42;1734119;82;21573;-72
2022/06/29 00:20:02;;;;;;;24.23;19.20;;;;;;;21.50;100.00;100260.41;1734173;82;21049;-70
2022/06/29 00:22:28;;;;;;;22.65;19.52;;;;;;;21.51;100.00;100247.40;1734370;82;21578;-71
2022/06/29 00:24:55;;;;;;;21.62;18.67;;;;;;;21.51;100.00;100248.73;1734183;82;21038;-71
2022/06/29 00:27:22;;;;;;;20.23;16.35;;;;;;;21.46;100.00;100254.93;1734023;82;21558;-70
2022/06/29 00:29:49;;;;;;;25.95;20.55;;;;;;;21.44;100.00;100248.88;1745954;82;21026;-72
2022/06/29 00:32:15;;;;;;;22.10;18.92;;;;;;;21.43;100.00;100244.97;1747866;81;21056;-71
2022/06/29 00:34:43;;;;;;;19.65;17.65;;;;;;;21.41;100.00;100250.93;1748132;82;21031;-70
2022/06/29 00:37:09;;;;;;;20.70;17.35;;;;;;;21.34;100.00;100254.06;1748030;82;21034;-71
2022/06/29 00:39:36;;;;;;;19.17;17.25;;;;;;;21.32;100.00;100255.16;1747901;82;21128;-70
2022/06/29 00:42:05;;;;;;;21.90;18.00;;;;;;;21.29;100.00;100250.06;1747893;81;21629;-72
2022/06/29 00:44:34;;;;;;;23.95;18.87;;;;;;;21.21;100.00;100248.47;1747779;82;21048;-70
2022/06/29 00:47:05;;;;;;;23.35;19.12;;;;;;;21.20;100.00;100252.13;1748148;81;21069;-71
2022/06/29 00:49:33;;;;;;;22.32;19.70;;;;;;;21.37;100.00;100264.55;1747936;82;21064;-70
2022/06/29 00:52:13;;;;;;;20.27;18.07;;;;;;;21.38;100.00;100258.70;1748354;81;21718;-71
2022/06/29 00:54:49;;;;;;;18.20;16.07;;;;;;;21.18;100.00;100258.09;1718254;83;21096;-71
2022/06/29 00:57:18;;;;;;;21.20;18.35;;;;;;;21.20;100.00;100258.83;1717798;83;21104;-70
2022/06/29 00:59:47;;;;;;;17.50;15.28;;;;;;;21.22;100.00;100259.07;1718377;83;21108;-70
2022/06/29 01:02:16;;;;;;;22.00;19.23;;;;;;;21.36;100.00;100260.16;1718567;83;22059;-71
2022/06/29 01:04:45;;;;;;;21.57;19.27;;;;;;;21.43;100.00;100263.72;1718689;83;21997;-71
2022/06/29 01:07:19;;;;;;;23.92;19.20;;;;;;;21.44;100.00;100253.36;1718262;83;21085;-71
2022/06/29 01:09:46;;;;;;;25.43;20.70;;;;;;;21.41;100.00;100262.49;1718291;83;21100;-71
2022/06/29 01:12:13;;;;;;;26.30;19.67;;;;;;;21.37;100.00;100269.03;1718326;83;21033;-71
2022/06/29 01:14:44;;;;;;;22.05;19.67;;;;;;;21.38;100.00;100284.15;1718268;83;21042;-72
2022/06/29 01:17:13;;;;;;;20.45;18.20;;;;;;;21.33;100.00;100287.20;1718165;83;21580;-71
2022/06/29 01:19:41;;;;;;;23.02;19.90;;;;;;;21.21;100.00;100282.82;1718421;82;21093;-71
2022/06/29 01:22:18;;;;;;;32.65;21.50;;;;;;;21.16;100.00;100292.55;1718188;83;21065;-71
2022/06/29 01:24:46;;;;;;;23.62;19.25;;;;;;;21.04;100.00;100301.53;1718232;83;21053;-69
2022/06/29 01:27:14;;;;;;;22.15;17.57;;;;;;;21.09;100.00;100295.81;1718309;83;21073;-70
2022/06/29 01:29:41;;;;;;;30.62;20.50;;;;;;;21.10;100.00;100295.70;1718282;83;22279;-70
2022/06/29 01:32:08;;;;;;;19.67;17.60;;;;;;;21.06;100.00;100292.89;1718507;83;21049;-69
2022/06/29 01:34:35;;;;;;;27.95;19.80;;;;;;;21.03;100.00;100295.83;1718626;83;21084;-70
2022/06/29 01:37:02;;;;;;;24.80;20.10;;;;;;;21.07;100.00;100306.67;1718480;83;21542;-69
2022/06/29 01:39:29;;;;;;;21.60;15.50;;;;;;;21.04;100.00;100304.20;1718419;83;21069;-70
2022/06/29 01:41:56;;;;;;;22.30;19.23;;;;;;;21.05;100.00;100301.04;1718509;83;21210;-70
2022/06/29 01:44:23;;;;;;;24.60;20.10;;;;;;;21.05;100.00;100303.72;1718610;83;21052;-70
2022/06/29 01:46:50;;;;;;;21.35;17.15;;;;;;;21.02;100.00;100311.50;1718399;83;21651;-70
2022/06/29 01:49:16;;;;;;;26.52;19.67;;;;;;;21.00;100.00;100308.09;1718466;83;21089;-69
2022/06/29 01:51:45;;;;;;;16.75;15.05;;;;;;;20.97;100.00;100303.48;1718482;83;21084;-70
2022/06/29 01:54:12;;;;;;;22.27;19.87;;;;;;;20.94;100.00;100297.88;1743716;82;21182;-70
2022/06/29 01:56:40;;;;;;;21.55;19.25;;;;;;;20.92;100.00;100292.64;1748114;82;21060;-70
2022/06/29 01:59:06;;;;;;;24.30;20.45;;;;;;;20.93;100.00;100293.48;1748212;82;21545;-70
2022/06/29 02:01:34;;;;;;;24.90;19.48;;;;;;;20.96;100.00;100290.59;1748279;82;21086;-70
2022/06/29 02:04:01;;;;;;;24.95;20.08;;;;;;;20.94;100.00;100289.36;1748419;82;21080;-70
2022/06/29 02:06:28;;;;;;;27.00;20.25;;;;;;;20.92;100.00;100289.11;1748196;82;21689;-71
2022/06/29 02:08:55;;;;;;;23.10;18.95;;;;;;;20.98;100.00;100289.11;1748631;82;21022;-69
2022/06/29 02:11:23;;;;;;;26.90;20.27;;;;;;;20.95;100.00;100290.20;1748462;82;21041;-70
2022/06/29 02:13:51;;;;;;;26.70;20.75;;;;;;;21.02;100.00;100298.61;1748289;82;22044;-71
2022/06/29 02:16:18;;;;;;;27.70;19.95;;;;;;;20.74;100.00;100300.75;1748226;82;21144;-70
2022/06/29 02:18:45;;;;;;;24.23;19.25;;;;;;;20.75;100.00;100295.75;1748218;82;21776;-71
2022/06/29 02:21:11;;;;;;;25.40;20.77;;;;;;;20.69;100.00;100302.44;1747852;82;21206;-70
2022/06/29 02:23:38;;;;;;;28.12;20.40;;;;;;;20.72;100.00;100309.38;1748127;82;21042;-71
2022/06/29 02:26:06;;;;;;;27.67;21.85;;;;;;;20.62;100.00;100313.74;1748034;82;21045;-70
2022/06/29 02:28:33;;;;;;;25.60;21.68;;;;;;;20.66;100.00;100313.39;1748222;81;21105;-70
2022/06/29 02:36:31;;;;;;;24.77;20.48;;;;;;;20.78;100.00;100308.07;1755752;81;21065;-72
2022/06/29 02:38:58;;;;;;;20.57;17.17;;;;;;;20.81;100.00;100310.01;1755804;81;21069;-70
2022/06/29 02:41:25;;;;;;;26.95;19.80;;;;;;;20.85;100.00;100314.66;1755860;81;21556;-71
2022/06/29 02:43:51;;;;;;;25.65;19.07;;;;;;;20.87;100.00;100311.37;1755967;81;21221;-69
2022/06/29 02:46:18;;;;;;;28.17;20.17;;;;;;;20.92;100.00;100314.05;1755755;81;21584;-70
2022/06/29 02:48:45;;;;;;;27.98;19.27;;;;;;;20.98;100.00;100315.42;1756211;81;21077;-71
2022/06/29 02:51:12;;;;;;;24.63;18.85;;;;;;;21.03;100.00;100322.59;1755787;81;21041;-73
2022/06/29 02:53:38;;;;;;;20.30;18.15;;;;;;;21.09;100.00;100324.78;1756004;81;21119;-71
2022/06/29 02:56:05;;;;;;;22.70;17.92;;;;;;;21.31;100.00;100333.83;1755832;81;21140;-71
2022/06/29 02:58:32;;;;;;;23.92;18.20;;;;;;;21.21;100.00;100328.81;1756104;81;21017;-70
2022/06/29 03:00:58;;;;;;;23.75;18.37;;;;;;;21.36;100.00;100334.31;1755954;81;21061;-72
2022/06/29 03:03:25;;;;;;;28.45;18.07;;;;;;;21.20;100.00;100336.49;1755959;81;21076;-73
2022/06/29 03:05:51;;;;;;;24.18;19.30;;;;;;;21.14;100.00;100336.01;1756138;81;21557;-74
2022/06/29 03:08:18;;;;;;;21.80;17.65;;;;;;;21.16;100.00;100337.20;1755800;81;21104;-74
2022/06/29 03:10:45;;;;;;;22.58;17.55;;;;;;;21.19;100.00;100334.77;1755755;81;21580;-73
2022/06/29 03:13:12;;;;;;;27.50;18.90;;;;;;;21.25;100.00;100336.98;1755842;81;21142;-72
2022/06/29 03:15:38;;;;;;;21.33;15.98;;;;;;;21.23;100.00;100335.75;1756202;81;21598;-73
2022/06/29 03:18:06;;;;;;;22.58;20.10;;;;;;;21.30;100.00;100338.34;1755857;81;21029;-73
2022/06/29 03:20:33;;;;;;;24.23;19.27;;;;;;;21.37;100.00;100344.04;1755791;81;21257;-71
2022/06/29 03:23:00;;;;;;;23.30;20.02;;;;;;;21.42;100.00;100343.25;1755898;81;21560;-73
2022/06/29 03:25:27;;;;;;;24.55;19.82;;;;;;;21.52;100.00;100340.69;1756064;81;21044;-74
2022/06/29 03:27:54;;;;;;;19.40;16.48;;;;;;;21.56;100.00;100336.30;1731075;81;21103;-73
2022/06/29 03:30:21;;;;;;;26.40;21.90;;;;;;;21.63;100.00;100338.50;1720598;82;21097;-73
2022/06/29 03:32:47;;;;;;;26.50;22.00;;;;;;;21.75;100.00;100333.48;1705306;84;22351;-73
2022/06/29 03:35:14;;;;;;;21.55;15.88;;;;;;;21.85;100.00;100322.36;1704775;84;21049;-75
2022/06/29 03:37:41;;;;;;;25.27;21.40;;;;;;;21.99;100.00;100322.12;1719510;82;21526;-72
2022/06/29 03:40:10;;;;;;;28.30;20.88;;;;;;;22.15;100.00;100323.52;1734182;82;21018;-72
2022/06/29 03:42:38;;;;;;;26.95;21.80;;;;;;;22.32;100.00;100323.52;1734445;82;22087;-72
2022/06/29 03:45:06;;;;;;;27.77;22.60;;;;;;;22.49;100.00;100318.06;1734397;82;21850;-73
2022/06/29 03:47:33;;;;;;;26.25;21.15;;;;;;;22.55;100.00;100313.53;1734172;82;21002;-72
2022/06/29 03:50:00;;;;;;;29.60;22.58;;;;;;;22.72;100.00;100318.80;1734096;82;21069;-74
2022/06/29 03:52:27;;;;;;;24.07;21.00;;;;;;;22.88;100.00;100311.64;1730820;82;21015;-74
2022/06/29 03:54:54;;;;;;;24.90;19.45;;;;;;;23.07;100.00;100317.14;1705238;84;21112;-73
2022/06/29 03:57:21;;;;;;;28.98;21.17;;;;;;;23.30;100.00;100323.20;1704788;84;21793;-73
2022/06/29 03:59:48;;;;;;;28.47;22.70;;;;;;;23.49;100.00;100318.90;1704976;84;21067;-71
2022/06/29 04:02:14;;;;;;;25.55;21.05;;;;;;;23.65;100.00;100324.14;1704935;84;21026;-74
2022/06/29 04:04:41;;;;;;;27.22;21.65;;;;;;;23.80;100.00;100317.06;1704670;84;21384;-72
2022/06/29 04:07:09;;;;;;;24.23;21.62;;;;;;;24.03;100.00;100309.11;1704106;84;21518;-73
2022/06/29 04:09:36;;;;;;;26.00;22.15;;;;;;;24.19;100.00;100303.19;1708505;82;21581;-73
2022/06/29 04:12:05;;;;;;;27.22;20.68;;;;;;;24.11;100.00;100314.28;1720797;82;21003;-72
2022/06/29 04:14:32;;;;;;;24.05;18.40;;;;;;;24.31;100.00;100302.55;1713728;82;21070;-73
2022/06/29 04:16:59;;;;;;;26.00;17.90;;;;;;;24.45;100.00;100303.46;1705059;82;21514;-73
2022/06/29 04:19:26;;;;;;;18.37;14.38;;;;;;;24.61;100.00;100300.73;1727758;82;21065;-73
2022/06/29 04:21:54;;;;;;;16.97;14.75;;;;;;;24.80;98.08;100302.07;1717919;82;21692;-74
2022/06/29 04:24:22;;;;;;;17.98;16.02;;;;;;;24.96;96.33;100300.59;1704852;82;21054;-74
2022/06/29 04:26:50;;;;;;;23.62;17.05;;;;;;;25.09;95.48;100295.75;1711466;82;21014;-72
2022/06/29 04:29:17;;;;;;;19.70;16.27;;;;;;;25.30;96.58;100306.34;1712548;81;21018;-73
2022/06/29 04:31:44;;;;;;;17.27;13.45;;;;;;;25.52;93.70;100310.52;1722469;82;21045;-73
2022/06/29 04:34:11;;;;;;;23.62;14.58;;;;;;;25.65;90.35;100316.89;1719789;82;21267;-74
2022/06/29 04:36:38;;;;;;;20.23;13.95;;;;;;;25.90;89.03;100307.28;1728690;82;21084;-72
2022/06/29 04:39:05;;;;;;;20.40;12.40;;;;;;;26.09;87.34;100315.27;1738222;82;21057;-74
2022/06/29 04:41:32;;;;;;;17.23;12.37;;;;;;;26.28;83.42;100312.08;1718216;83;21045;-73
2022/06/29 04:43:58;;;;;;;14.98;11.33;;;;;;;26.38;81.60;100310.12;1718454;83;21044;-72
2022/06/29 04:46:25;;;;;;;15.23;12.43;;;;;;;26.41;80.27;100307.14;1718286;82;21088;-72
2022/06/29 04:48:59;;;;;;;14.63;11.93;;;;;;;26.52;79.70;100313.62;1738916;82;21029;-73
2022/06/29 04:51:29;;;;;;;12.68;11.45;;;;;;;26.69;79.18;100309.77;1736277;81;21018;-72
2022/06/29 04:53:56;;;;;;;15.18;11.50;;;;;;;26.86;77.70;100311.57;1740565;82;21034;-72
2022/06/29 04:56:27;;;;;;;15.15;11.22;;;;;;;27.05;77.88;100306.96;1748288;82;21045;-73
2022/06/29 04:58:56;;;;;;;;;;;;;;;27.29;75.17;100307.15;1750839;82;21142;-72
2022/06/29 05:01:24;;;;;;;19.27;12.00;;;;;;;27.44;74.10;100314.65;1748238;82;20139;-73
2022/06/29 05:03:51;;;;;;;13.90;11.55;;;;;;;27.52;75.33;100314.70;1748421;82;21064;-71
2022/06/29 05:06:20;;;;;;;12.75;11.45;;;;;;;27.70;72.42;100314.58;1736801;82;21037;-73
2022/06/29 05:08:48;;;;;;;17.90;11.08;;;;;;;27.87;73.43;100310.12;1735555;82;21064;-72
2022/06/29 05:11:17;;;;;;;13.78;10.72;;;;;;;28.09;71.92;100308.64;1734297;82;21097;-72
2022/06/29 05:13:45;;;;;;;15.10;11.53;;;;;;;28.24;70.39;100309.69;1718855;81;21061;-72
2022/06/29 05:16:13;;;;;;;13.70;11.28;;;;;;;28.35;70.31;100316.66;1722887;82;21065;-73
2022/06/29 05:18:40;;;;;;;16.62;10.78;;;;;;;28.34;69.47;100319.84;1748160;82;21086;-73
2022/06/29 05:21:09;;;;;;;13.00;11.63;;;;;;;28.40;70.06;100325.11;1748169;81;21052;-72
2022/06/29 05:23:35;;;;;;;14.40;10.98;;;;;;;28.56;70.58;100322.44;1748290;82;21156;-72
2022/06/29 05:26:02;;;;;;;13.95;9.78;;;;;;;28.74;69.31;100314.15;1747998;81;21596;-72
2022/06/29 05:28:29;;;;;;;14.10;11.08;;;;;;;28.70;67.25;100314.66;1747924;81;21010;-73
2022/06/29 05:30:55;;;;;;;13.05;11.08;;;;;;;28.58;66.75;100308.22;1738798;82;21537;-73
2022/06/29 05:33:22;;;;;;;14.78;10.82;;;;;;;28.47;66.79;100315.33;1733064;82;21141;-72
2022/06/29 05:35:49;;;;;;;11.95;10.75;;;;;;;28.45;67.80;100308.69;1717985;83;21150;-74
2022/06/29 05:38:16;;;;;;;12.75;10.95;;;;;;;28.46;67.88;100310.91;1717548;83;21068;-75
2022/06/29 05:40:44;;;;;;;12.50;11.03;;;;;;;28.49;68.72;100316.02;1717696;83;21580;-73
2022/06/29 05:43:11;;;;;;;11.78;10.63;;;;;;;28.47;68.90;100318.03;1718161;83;21089;-73
2022/06/29 05:45:38;;;;;;;15.23;10.60;;;;;;;28.55;69.07;100320.77;1718421;83;21564;-74
2022/06/29 05:48:06;;;;;;;17.27;11.25;;;;;;;28.82;70.23;100326.84;1718158;83;21200;-72
2022/06/29 05:50:33;;;;;;;13.68;11.18;;;;;;;29.13;68.15;100324.81;1718331;83;21057;-73
2022/06/29 05:53:00;;;;;;;15.70;11.30;;;;;;;29.36;67.41;100325.77;1725909;82;21049;-73
2022/06/29 05:55:27;;;;;;;15.68;12.10;;;;;;;29.59;66.63;100326.36;1727711;82;21155;-73
2022/06/29 05:57:53;;;;;;;21.02;11.25;;;;;;;29.87;65.99;100323.53;1738962;82;21069;-72
2022/06/29 06:00:20;;;;;;;19.35;11.00;;;;;;;30.15;63.72;100317.61;1726755;82;21120;-73
2022/06/29 06:02:48;;;;;;;13.20;10.45;;;;;;;30.55;63.75;100314.27;1735260;82;21052;-73
2022/06/29 06:05:15;;;;;;;15.63;11.10;;;;;;;30.55;63.75;100314.27;1748297;81;21057;-72
2022/06/29 06:07:42;;;;;;;11.65;10.53;;;;;;;30.76;62.09;100324.48;1748113;82;21352;-74
2022/06/29 06:10:09;;;;;;;14.70;10.60;;;;;;;30.87;61.66;100319.13;1748276;81;21573;-72
2022/06/29 06:12:36;;;;;;;13.28;10.53;;;;;;;31.04;61.16;100315.23;1747918;81;21099;-72
2022/06/29 06:15:05;;;;;;;14.38;10.28;;;;;;;31.23;59.95;100315.72;1747889;82;21617;-73
2022/06/29 06:17:32;;;;;;;13.30;10.48;;;;;;;31.41;59.67;100314.86;1748074;81;21595;-72
2022/06/29 06:19:59;;;;;;;12.78;10.82;;;;;;;31.63;60.31;100323.92;1747872;82;21092;-73
2022/06/29 06:22:26;;;;;;;11.50;10.30;;;;;;;31.75;57.94;100325.14;1747756;81;22113;-74
2022/06/29 06:24:53;;;;;;;11.55;10.15;;;;;;;31.83;57.75;100317.90;1747501;82;21293;-72
2022/06/29 06:27:20;;;;;;;13.03;10.48;;;;;;;32.02;57.65;100319.19;1748125;82;21601;-74
2022/06/29 06:29:47;;;;;;;16.60;11.03;;;;;;;32.19;57.96;100315.20;1748176;82;21053;-73
2022/06/29 06:32:13;;;;;;;16.75;10.30;;;;;;;32.40;56.85;100319.28;1748326;82;21105;-72
2022/06/29 06:34:40;;;;;;;17.02;10.45;;;;;;;32.54;56.21;100312.11;1748423;81;21548;-73
2022/06/29 06:37:07;;;;;;;16.32;10.68;;;;;;;32.60;56.41;100303.65;1748466;82;21154;-73
2022/06/29 06:39:33;;;;;;;20.00;10.72;;;;;;;32.75;55.01;100297.60;1748283;81;21530;-74
2022/06/29 06:42:02;;;;;;;19.82;11.12;;;;;;;32.80;50.70;100292.39;1742720;82;21045;-75
2022/06/29 06:44:29;;;;;;;18.32;11.43;;;;;;;32.84;50.70;100294.73;1728936;82;21497;-73
2022/06/29 06:46:56;;;;;;;17.12;11.00;;;;;;;32.84;50.23;100293.38;1727182;82;21045;-74
2022/06/29 06:49:25;;;;;;;22.00;10.65;;;;;;;32.81;50.81;100292.73;1737605;82;21102;-74
2022/06/29 06:51:52;;;;;;;18.35;10.60;;;;;;;32.89;50.41;100286.80;1748011;82;21065;-74
2022/06/29 06:54:19;;;;;;;13.38;9.90;;;;;;;33.01;50.22;100281.97;1721710;82;21088;-73
2022/06/29 06:56:46;;;;;;;12.58;9.88;;;;;;;33.15;48.71;100281.56;1731475;82;21552;-73
2022/06/29 06:59:13;;;;;;;13.18;10.23;;;;;;;33.07;49.19;100283.07;1748218;81;21537;-73
2022/06/29 07:01:39;;;;;;;15.00;10.28;;;;;;;33.03;49.21;100276.29;1748191;82;21131;-74
2022/06/29 07:04:06;;;;;;;22.05;10.38;;;;;;;33.16;49.49;100275.05;1748006;81;21085;-74
2022/06/29 07:06:34;;;;;;;18.42;11.43;;;;;;;33.20;50.13;100272.24;1744628;81;21068;-74
2022/06/29 07:09:01;;;;;;;16.77;11.25;;;;;;;33.29;49.17;100266.59;1719053;82;21325;-73
2022/06/29 07:11:30;;;;;;;20.25;10.25;;;;;;;33.33;49.03;100267.89;1736596;82;20990;-73
2022/06/29 07:13:57;;;;;;;17.50;10.30;;;;;;;33.55;48.28;100260.44;1718211;82;21259;-74
2022/06/29 07:16:23;;;;;;;13.22;10.28;;;;;;;33.72;48.76;100261.78;1722776;82;21065;-74
2022/06/29 07:18:50;;;;;;;17.00;10.63;;;;;;;33.90;47.57;100253.01;1721061;82;21124;-73
2022/06/29 07:21:17;;;;;;;14.93;10.28;;;;;;;33.98;47.28;100252.83;1736485;82;21076;-73
2022/06/29 07:23:44;;;;;;;14.83;10.15;;;;;;;34.13;46.87;100246.36;1736419;82;21042;-73
2022/06/29 07:26:11;;;;;;;13.75;9.78;;;;;;;34.13;46.61;100238.16;1729196;82;21168;-74
2022/06/29 07:28:39;;;;;;;11.35;9.45;;;;;;;34.23;46.33;100243.55;1717816;83;21010;-74
2022/06/29 07:31:08;;;;;;;12.68;9.53;;;;;;;34.09;46.17;100242.33;1712175;83;20999;-74
2022/06/29 07:33:35;;;;;;;12.33;10.10;;;;;;;34.15;46.21;100250.56;1723482;82;21109;-74
2022/06/29 07:36:01;;;;;;;11.65;10.05;;;;;;;34.17;46.38;100246.27;1733697;82;21557;-75
2022/06/29 07:38:28;;;;;;;11.40;9.40;;;;;;;34.12;45.81;100241.93;1733508;82;21176;-74
2022/06/29 07:40:55;;;;;;;15.03;9.78;;;;;;;34.40;46.39;100241.76;1734289;82;21042;-75
2022/06/29 07:43:21;;;;;;;10.40;8.55;;;;;;;34.86;45.54;100240.37;1724150;82;21313;-75
2022/06/29 07:45:48;;;;;;;12.53;8.55;;;;;;;35.00;44.09;100241.19;1722020;82;21613;-74
2022/06/29 07:48:18;;;;;;;11.65;8.75;;;;;;;35.06;40.72;100236.73;1710430;82;21614;-74
2022/06/29 07:50:44;;;;;;;18.65;10.03;;;;;;;34.99;40.59;100240.02;1704779;84;21243;-74
2022/06/29 07:53:12;;;;;;;15.05;9.35;;;;;;;34.65;41.77;100242.83;1717481;82;21086;-74
2022/06/29 07:55:39;;;;;;;9.95;8.93;;;;;;;34.51;42.28;100245.73;1729789;82;21022;-74
2022/06/29 07:58:06;;;;;;;10.48;8.50;;;;;;;34.56;41.89;100248.70;1729728;82;21089;-75
2022/06/29 08:00:34;;;;;;;12.47;8.35;;;;;;;34.55;42.19;100245.63;1721295;82;21030;-75
2022/06/29 08:03:01;;;;;;;10.75;8.13;;;;;;;34.56;40.70;100243.23;1734312;82;21292;-74
2022/06/29 08:05:28;;;;;;;11.50;7.85;;;;;;;34.41;40.53;100248.36;1734080;82;21070;-74
2022/06/29 08:07:54;;;;;;;8.58;7.78;;;;;;;34.28;40.18;100253.84;1734446;82;21081;-75
2022/06/29 08:10:21;;;;;;;10.98;8.38;;;;;;;34.08;41.13;100258.41;1734218;82;21079;-75
2022/06/29 08:12:48;;;;;;;8.83;7.75;;;;;;;33.97;42.16;100249.77;1732275;82;21041;-73
2022/06/29 08:15:17;;;;;;;13.83;8.03;;;;;;;34.11;41.72;100242.99;1729561;82;21118;-74
2022/06/29 08:17:48;;;;;;;12.73;8.23;;;;;;;34.32;40.84;100243.32;1714203;82;21252;-73
2022/06/29 08:20:16;;;;;;;16.40;7.90;;;;;;;34.50;40.35;100239.43;1730269;82;21093;-74
2022/06/29 08:22:43;;;;;;;9.78;7.37;;;;;;;34.74;39.98;100240.72;1734307;82;21092;-74
2022/06/29 08:25:11;;;;;;;9.38;8.00;;;;;;;35.02;40.26;100232.23;1734323;82;21054;-74
2022/06/29 08:27:38;;;;;;;9.58;8.30;;;;;;;35.44;39.51;100231.91;1734208;82;21335;-74
2022/06/29 08:30:07;;;;;;;11.70;8.30;;;;;;;35.49;38.72;100234.83;1734038;82;21554;-74
2022/06/29 08:32:34;;;;;;;11.57;7.67;;;;;;;35.57;38.67;100235.95;1734069;82;21030;-75
2022/06/29 08:35:01;;;;;;;11.48;7.72;;;;;;;35.75;38.04;100234.41;1734156;82;21030;-74
2022/06/29 08:37:28;;;;;;;13.05;7.87;;;;;;;35.83;37.35;100230.87;1734219;82;21037;-75
2022/06/29 08:39:56;;;;;;;8.40;7.60;;;;;;;35.86;38.10;100230.97;1734407;82;21865;-74
2022/06/29 08:42:24;;;;;;;10.25;7.60;;;;;;;35.74;38.46;100239.59;1731505;82;21725;-73
2022/06/29 08:45:45;;;;;;;9.98;8.50;;;;;;;35.90;37.15;100237.69;1854840;75;22545;-74
2022/06/29 08:48:13;;;;;;;11.10;7.22;;;;;;;36.04;36.96;100235.16;1858281;77;21088;-74
2022/06/29 08:50:50;;;;;;;9.98;7.08;;;;;;;36.25;37.12;100233.15;1840501;77;21495;-72
2022/06/29 08:53:17;;;;;;;12.93;7.00;;;;;;;36.59;35.53;100226.34;1835005;77;20982;-72
2022/06/29 08:55:47;;;;;;;9.68;7.72;;;;;;;36.85;35.45;100229.34;1854513;77;21021;-73
2022/06/29 08:58:19;;;;;;;8.60;7.50;;;;;;;36.65;34.79;100228.20;1858358;77;20946;-71
2022/06/29 09:00:46;;;;;;;12.05;7.53;;;;;;;36.66;34.46;100231.23;1857328;76;21021;-72
2022/06/29 09:03:15;;;;;;;8.65;7.10;;;;;;;36.82;34.68;100231.18;1822427;77;21103;-73
2022/06/29 09:05:49;;;;;;;16.48;8.03;;;;;;;37.03;33.65;100227.69;1827731;77;21060;-72
2022/06/29 09:08:18;;;;;;;10.50;7.20;;;;;;;37.21;34.46;100237.33;1818299;78;21035;-72
2022/06/29 09:10:45;;;;;;;8.58;6.85;;;;;;;37.11;33.61;100224.14;1788616;78;21040;-71
2022/06/29 09:13:14;;;;;;;9.60;6.58;;;;;;;37.04;33.61;100225.23;1789004;78;21307;-71
2022/06/29 09:15:41;;;;;;;7.53;6.55;;;;;;;36.84;33.16;100218.08;1816715;78;21815;-71
2022/06/29 09:18:33;;;;;;;9.00;6.70;;;;;;;36.76;33.44;100207.39;1817536;78;21041;-74
2022/06/29 09:21:02;;;;;;;9.58;6.53;;;;;;;36.75;32.62;100209.84;1817173;79;20997;-72
2022/06/29 09:23:33;;;;;;;9.70;6.92;;;;;;;36.81;33.33;100210.31;1816956;79;21037;-73
2022/06/29 09:26:00;;;;;;;7.85;7.15;;;;;;;37.04;32.76;100206.02;1789820;79;21080;-72
2022/06/29 09:28:31;;;;;;;9.38;7.08;;;;;;;37.24;32.26;100203.91;1817093;79;21445;-71
2022/06/29 09:30:59;;;;;;;7.33;6.62;;;;;;;37.28;32.55;100203.76;1816911;79;21080;-71
2022/06/29 09:33:28;;;;;;;6.95;6.25;;;;;;;37.23;30.40;100200.88;1817231;79;21048;-73
2022/06/29 09:36:17;;;;;;;8.25;6.55;;;;;;;37.08;30.79;100199.87;1817202;79;21557;-72
2022/06/29 09:38:44;;;;;;;8.40;6.30;;;;;;;36.91;31.22;100203.75;1817362;79;21029;-71
2022/06/29 09:41:14;;;;;;;6.28;5.67;;;;;;;36.99;31.16;100199.02;1817254;79;21101;-73
2022/06/29 09:43:44;;;;;;;8.10;6.40;;;;;;;36.90;30.45;100195.22;1817282;78;21085;-70
2022/06/29 09:46:13;;;;;;;7.30;6.58;;;;;;;36.84;31.43;100190.64;1817982;78;21077;-72
2022/06/29 09:48:41;;;;;;;6.47;5.87;;;;;;;36.63;31.93;100193.80;1817486;78;21036;-71
2022/06/29 09:54:03;;;;;;;5.85;4.75;;;;;;;36.53;29.57;100192.38;1842564;77;21158;-73
2022/06/29 09:56:31;;;;;;;8.83;6.08;;;;;;;36.59;27.84;100189.86;1851759;77;21021;-73
2022/06/29 09:58:59;;;;;;;8.63;6.00;;;;;;;36.84;29.74;100187.89;1851686;77;20982;-71
2022/06/29 10:04:13;;;;;;;6.42;5.55;;;;;;;37.51;29.83;100185.17;1851398;77;21107;-72
2022/06/29 10:06:40;;;;;;;10.30;5.62;;;;;;;37.84;27.72;100180.30;1851701;77;21091;-73
2022/06/29 10:09:08;;;;;;;6.30;5.70;;;;;;;37.34;27.68;100185.00;1851362;77;20970;-73
2022/06/29 10:14:50;;;;;;;6.10;5.28;;;;;;;36.76;28.67;100184.06;1851423;77;21024;-72
2022/06/29 10:17:47;;;;;;;11.73;5.87;;;;;;;36.74;28.63;100179.34;1850412;77;21567;-73
2022/06/29 10:20:24;;;;;;;9.20;6.67;;;;;;;37.00;29.61;100181.50;1851276;77;21568;-73
2022/06/29 10:22:51;;;;;;;9.40;6.22;;;;;;;37.17;30.37;100181.19;1851253;77;21017;-72
2022/06/29 10:25:23;;;;;;;9.18;6.50;;;;;;;37.35;30.05;100179.79;1851069;77;21051;-73
2022/06/29 10:28:20;;;;;;;11.12;6.45;;;;;;;37.46;29.62;100174.59;1800347;77;21567;-73
2022/06/29 10:30:45;;;;;;;8.63;5.92;;;;;;;37.51;29.95;100165.95;1824373;77;21036;-72
2022/06/29 10:33:33;;;;;;;6.70;5.83;;;;;;;37.87;28.96;100166.94;1851250;77;21984;-74
2022/06/29 10:36:08;;;;;;;8.53;6.50;;;;;;;37.83;27.33;100164.89;1851314;77;21559;-72
2022/06/29 10:39:05;;;;;;;7.17;6.20;;;;;;;37.43;28.47;100149.78;1851455;77;21029;-71
2022/06/29 10:45:03;;;;;;;7.58;6.08;;;;;;;37.67;28.79;100149.37;1854147;77;21040;-71
2022/06/29 10:47:31;;;;;;;9.80;6.30;;;;;;;37.49;28.71;100142.53;1848224;77;21555;-73
2022/06/29 10:50:23;;;;;;;6.45;5.85;;;;;;;37.53;28.95;100130.02;1848179;77;21548;-72
2022/06/29 10:53:11;;;;;;;6.55;5.95;;;;;;;37.57;28.55;100119.73;1848573;77;21033;-72
2022/06/29 10:55:46;;;;;;;;;;;;;;;37.30;29.13;100117.88;1851146;77;20978;-71
2022/06/29 10:58:13;;;;;;;10.08;6.55;;;;;;;37.33;28.99;100118.77;1848121;77;20168;-73
2022/06/29 11:00:47;;;;;;;8.75;6.50;;;;;;;37.38;29.12;100114.78;1848304;77;21762;-71
2022/06/29 11:03:18;;;;;;;7.05;5.97;;;;;;;37.26;30.02;100112.53;1848415;77;21029;-72
2022/06/29 11:15:39;;;;;;;8.70;6.00;;;;;;;37.73;30.65;100103.61;1848593;77;21110;-72
2022/06/29 11:16:37;;;;;;;8.28;6.15;;;;;;;38.05;29.07;100097.28;1844603;77;21536;-73
2022/06/29 11:19:04;;;;;;;7.40;6.00;;;;;;;38.14;29.15;100088.98;1848412;77;21025;-74
2022/06/29 11:21:31;;;;;;;7.12;6.25;;;;;;;38.03;28.60;100080.22;1848504;77;21017;-74
2022/06/29 11:24:04;;;;;;;9.48;6.33;;;;;;;37.84;28.77;100075.86;1848733;77;21474;-72
2022/06/29 11:26:33;;;;;;;6.62;5.90;;;;;;;37.80;27.88;100064.49;1848089;77;21175;-72
2022/06/29 11:29:02;;;;;;;7.23;5.83;;;;;;;37.88;27.87;100066.07;1848653;77;21045;-72
2022/06/29 11:31:29;;;;;;;9.48;5.50;;;;;;;37.87;27.64;100067.13;1848114;77;21042;-72
2022/06/29 11:33:56;;;;;;;7.10;5.62;;;;;;;37.63;26.97;100067.66;1848034;77;21006;-71
2022/06/29 11:36:29;;;;;;;6.53;5.37;;;;;;;37.07;27.15;100076.60;1848251;77;21067;-72
2022/06/29 11:38:59;;;;;;;6.40;5.80;;;;;;;36.52;27.99;100074.70;1848282;77;22339;-73
2022/06/29 11:43:03;;;;;;;8.63;5.60;;;;;;;36.31;28.42;100069.96;1848632;77;20992;-72
2022/06/29 11:44:05;;;;;;;8.65;6.15;;;;;;;36.40;29.00;100063.65;1844832;77;21037;-72